createdAt,value
2022-10-05T00:02:58.546Z,90.70
2022-10-05T00:06:01.269Z,90.61
2022-10-05T00:09:15.827Z,91.28
2022-10-05T00:12:20.493Z,91.68
2022-10-05T00:15:23.638Z,91.76
2022-10-05T00:18:27.144Z,91.85
2022-10-05T00:21:30.053Z,91.56
2022-10-05T00:24:32.769Z,91.43
2022-10-05T00:27:38.106Z,91.49
2022-10-05T00:30:41.115Z,91.79
2022-10-05T00:33:43.892Z,91.18
2022-10-05T00:36:47.042Z,91.05
2022-10-05T00:39:50.005Z,91.76
2022-10-05T00:43:23.586Z,91.21
2022-10-05T00:46:43.982Z,91.59
2022-10-05T00:50:05.480Z,91.49
2022-10-05T00:53:30.353Z,91.49
2022-10-05T00:56:51.610Z,91.58
2022-10-05T01:00:08.094Z,91.54
2022-10-05T01:03:16.307Z,91.70
2022-10-05T01:07:02.482Z,91.11
2022-10-05T01:10:16.095Z,91.50
2022-10-05T01:13:24.481Z,91.71
2022-10-05T01:16:36.235Z,91.19
2022-10-05T01:19:44.582Z,91.03
2022-10-05T01:23:18.121Z,91.24
2022-10-05T01:26:23.623Z,90.54
2022-10-05T01:29:51.055Z,90.68
2022-10-05T01:33:09.530Z,90.40
2022-10-05T01:36:12.298Z,89.92
2022-10-05T01:39:41.277Z,90.85
2022-10-05T01:42:59.388Z,91.34
2022-10-05T01:46:43.286Z,90.76
2022-10-05T01:50:07.250Z,90.30
2022-10-05T01:53:29.343Z,91.15
2022-10-05T01:56:39.091Z,91.14
2022-10-05T02:00:09.131Z,92.18
2022-10-05T02:03:33.483Z,91.78
2022-10-05T02:06:42.661Z,91.67
2022-10-05T02:10:09.131Z,91.19
2022-10-05T02:13:15.316Z,91.44
2022-10-05T02:16:29.659Z,91.37
2022-10-05T02:19:39.858Z,92.05
2022-10-05T02:22:53.441Z,92.07
2022-10-05T02:25:56.733Z,92.35
2022-10-05T02:29:05.715Z,92.42
2022-10-05T02:32:14.387Z,92.15
2022-10-05T02:35:19.225Z,92.54
2022-10-05T02:38:39.257Z,91.91
2022-10-05T02:42:04.044Z,91.89
2022-10-05T02:45:51.942Z,92.12
2022-10-05T02:49:03.751Z,92.37
2022-10-05T02:52:26.994Z,92.19
2022-10-05T02:55:49.607Z,92.27
2022-10-05T02:59:11.370Z,92.38
2022-10-05T03:02:26.775Z,92.92
2022-10-05T03:05:32.583Z,93.04
2022-10-05T03:08:54.588Z,92.34
2022-10-05T03:12:41.625Z,93.07
2022-10-05T03:16:00.067Z,92.20
2022-10-05T03:19:25.055Z,93.15
2022-10-05T03:22:42.782Z,92.55
2022-10-05T03:26:27.891Z,92.58
2022-10-05T03:29:42.847Z,92.19
2022-10-05T03:33:21.045Z,92.72
2022-10-05T03:36:39.272Z,92.41
2022-10-05T03:39:51.838Z,92.33
2022-10-05T03:43:01.090Z,92.32
2022-10-05T03:46:17.015Z,92.29
2022-10-05T03:49:28.024Z,91.97
2022-10-05T03:52:39.915Z,91.28
2022-10-05T03:55:49.829Z,91.49
2022-10-05T03:58:56.241Z,91.63
2022-10-05T04:02:06.914Z,91.10
2022-10-05T04:05:10.074Z,90.51
2022-10-05T04:08:37.822Z,90.12
2022-10-05T04:12:11.467Z,91.26
2022-10-05T04:15:36.450Z,91.16
2022-10-05T04:18:51.299Z,91.18
2022-10-05T04:22:03.695Z,91.00
2022-10-05T04:25:17.762Z,91.96
2022-10-05T04:28:46.451Z,92.08
2022-10-05T04:31:58.510Z,92.62
2022-10-05T04:35:26.151Z,92.15
2022-10-05T04:38:43.781Z,92.74
2022-10-05T04:42:06.493Z,93.11
2022-10-05T04:45:31.472Z,92.88
2022-10-05T04:48:46.602Z,93.06
2022-10-05T04:52:06.149Z,92.68
2022-10-05T04:55:22.589Z,92.89
2022-10-05T04:58:44.119Z,92.89
2022-10-05T05:02:03.471Z,92.73
2022-10-05T05:05:21.987Z,92.82
2022-10-05T05:09:09.424Z,92.67
2022-10-05T05:12:49.407Z,93.30
2022-10-05T05:16:07.827Z,93.13
2022-10-05T05:19:35.263Z,93.49
2022-10-05T05:22:47.497Z,93.16
2022-10-05T05:26:22.154Z,93.09
2022-10-05T05:29:50.327Z,93.44
2022-10-05T05:33:19.538Z,92.99
2022-10-05T05:36:36.354Z,92.75
2022-10-05T05:40:14.060Z,93.41
2022-10-05T05:43:45.017Z,91.97
2022-10-05T05:47:04.083Z,91.42
2022-10-05T05:50:24.451Z,90.99
2022-10-05T05:53:54.712Z,91.12
2022-10-05T05:57:21.900Z,90.33
2022-10-05T06:00:31.600Z,90.81
2022-10-05T06:03:44.994Z,90.41
2022-10-05T06:06:52.511Z,90.33
2022-10-05T06:10:00.355Z,89.51
2022-10-05T06:13:19.695Z,89.59
2022-10-05T06:16:58.527Z,89.95
2022-10-05T06:20:05.836Z,89.51
2022-10-05T06:23:25.848Z,88.90
2022-10-05T06:27:03.686Z,88.29
2022-10-05T06:30:07.709Z,88.03
2022-10-05T06:33:29.648Z,87.83
2022-10-05T06:37:09.115Z,87.19
2022-10-05T06:40:34.000Z,84.18
2022-10-05T06:43:57.287Z,79.59
2022-10-05T06:47:22.019Z,66.70
2022-10-05T06:50:54.991Z,66.59
2022-10-05T06:54:45.234Z,62.00
2022-10-05T06:58:11.155Z,55.98
2022-10-05T07:01:37.390Z,50.23
2022-10-05T07:05:03.689Z,46.22
2022-10-05T07:08:25.310Z,42.63
2022-10-05T07:11:34.507Z,42.52
2022-10-05T07:14:52.965Z,40.56
2022-10-05T07:18:21.862Z,35.85
2022-10-05T07:21:49.637Z,34.66
2022-10-05T07:25:15.577Z,34.12
2022-10-05T07:28:33.383Z,32.26
2022-10-05T07:31:48.686Z,32.92
2022-10-05T07:35:30.707Z,31.50
2022-10-05T07:38:44.945Z,30.71
2022-10-05T07:42:04.544Z,31.79
2022-10-05T07:45:28.290Z,31.27
2022-10-05T07:48:50.534Z,30.70
2022-10-05T07:51:58.556Z,30.96
2022-10-05T07:55:25.689Z,28.42
2022-10-05T07:58:41.565Z,29.03
2022-10-05T08:01:54.879Z,26.93
2022-10-05T08:05:04.279Z,26.94
2022-10-05T08:08:19.834Z,27.35
2022-10-05T08:12:04.405Z,27.61
2022-10-05T08:15:38.502Z,27.39
2022-10-05T08:19:06.983Z,26.89
2022-10-05T08:22:19.560Z,26.06
2022-10-05T08:25:36.986Z,25.07
2022-10-05T08:28:44.026Z,25.29
2022-10-05T08:31:50.615Z,24.94
2022-10-05T08:34:56.502Z,25.44
2022-10-05T08:38:03.963Z,24.88
2022-10-05T08:41:26.573Z,27.15
2022-10-05T08:44:50.717Z,27.12
2022-10-05T08:48:11.650Z,27.36
2022-10-05T08:51:37.098Z,28.46
2022-10-05T08:55:02.539Z,26.19
2022-10-05T08:58:24.497Z,24.58
2022-10-05T09:01:27.564Z,25.90
2022-10-05T09:04:49.948Z,24.21
2022-10-05T09:08:02.370Z,23.70
2022-10-05T09:11:12.302Z,24.38
2022-10-05T09:14:33.568Z,22.04
2022-10-05T09:17:55.092Z,22.14
2022-10-05T09:21:15.089Z,24.16
2022-10-05T09:24:53.067Z,21.59
2022-10-05T09:27:59.123Z,20.76
2022-10-05T09:31:13.692Z,22.10
2022-10-05T09:34:28.698Z,20.78
2022-10-05T09:38:02.438Z,20.90
2022-10-05T09:41:29.653Z,20.57
2022-10-05T09:44:53.044Z,20.17
2022-10-05T09:48:07.543Z,19.38
2022-10-05T09:51:23.096Z,21.23
2022-10-05T09:54:53.056Z,20.77
2022-10-05T09:58:04.555Z,19.07
2022-10-05T10:01:33.295Z,19.23
2022-10-05T10:04:50.666Z,19.38
2022-10-05T10:08:27.338Z,17.88
2022-10-05T10:11:40.128Z,17.33
2022-10-05T10:15:07.155Z,17.46
2022-10-05T10:19:06.053Z,18.68
2022-10-05T10:22:42.968Z,17.78
2022-10-05T10:25:49.264Z,17.85
2022-10-05T10:29:16.993Z,18.78
2022-10-05T10:32:38.709Z,21.54
2022-10-05T10:35:49.321Z,17.99
2022-10-05T10:38:52.265Z,18.10
2022-10-05T10:42:12.310Z,19.22
2022-10-05T10:45:32.373Z,18.97
2022-10-05T10:48:54.744Z,19.36
2022-10-05T10:52:06.821Z,18.11
2022-10-05T10:55:55.909Z,18.77
2022-10-05T10:59:26.609Z,18.26
2022-10-05T11:02:50.793Z,18.51
2022-10-05T11:06:12.846Z,18.57
2022-10-05T11:09:32.078Z,17.98
2022-10-05T11:12:59.604Z,19.99
2022-10-05T11:16:28.156Z,19.55
2022-10-05T11:20:05.376Z,18.77
2022-10-05T11:23:45.368Z,17.40
2022-10-05T11:26:51.772Z,17.95
2022-10-05T11:30:34.795Z,19.85
2022-10-05T11:34:21.054Z,18.21
2022-10-05T11:37:53.854Z,18.03
2022-10-05T11:41:19.583Z,16.85
2022-10-05T11:44:31.316Z,18.31
2022-10-05T11:48:02.812Z,19.64
2022-10-05T11:51:14.718Z,20.63
2022-10-05T11:58:22.262Z,24.52
2022-10-05T12:01:48.473Z,26.73
2022-10-05T12:05:06.708Z,29.35
2022-10-05T12:08:28.134Z,28.26
2022-10-05T12:11:47.239Z,28.20
2022-10-05T12:14:59.387Z,25.06
2022-10-05T12:18:14.203Z,23.77
2022-10-05T12:21:34.966Z,20.92
2022-10-05T12:24:37.658Z,21.19
2022-10-05T12:27:46.325Z,22.62
2022-10-05T12:30:49.087Z,21.74
2022-10-05T12:34:05.618Z,22.43
2022-10-05T12:37:11.022Z,23.36
2022-10-05T12:40:25.785Z,25.98
2022-10-05T12:43:40.552Z,27.43
2022-10-05T12:46:46.408Z,27.55
2022-10-05T12:50:02.401Z,26.79
2022-10-05T12:53:43.751Z,26.15
2022-10-05T12:56:52.163Z,28.81
2022-10-05T13:00:22.469Z,30.02
2022-10-05T13:03:34.689Z,31.24
2022-10-05T13:07:04.699Z,32.42
2022-10-05T13:10:35.513Z,33.19
2022-10-05T13:14:16.592Z,31.91
2022-10-05T13:17:39.837Z,30.85
2022-10-05T13:20:57.010Z,30.37
2022-10-05T13:24:03.301Z,28.68
2022-10-05T13:27:22.241Z,30.76
2022-10-05T13:30:26.976Z,28.22
2022-10-05T13:34:00.141Z,28.65
2022-10-05T13:37:20.191Z,30.61
2022-10-05T13:40:29.653Z,31.04
2022-10-05T13:43:50.726Z,31.27
2022-10-05T13:47:31.706Z,32.83
2022-10-05T13:50:44.584Z,31.83
2022-10-05T13:53:56.134Z,30.48
2022-10-05T13:57:08.070Z,31.84
2022-10-05T14:00:45.024Z,33.38
2022-10-05T14:07:39.330Z,34.64
2022-10-05T14:10:47.686Z,34.96
2022-10-05T14:13:50.889Z,35.56
2022-10-05T14:20:37.417Z,34.49
2022-10-05T14:23:40.210Z,34.02
2022-10-05T14:26:52.659Z,33.46
2022-10-05T14:29:59.840Z,33.58
2022-10-05T14:33:05.366Z,35.24
2022-10-05T14:36:22.418Z,36.20
2022-10-05T14:39:33.199Z,35.59
2022-10-05T14:42:47.126Z,36.03
2022-10-05T14:45:58.192Z,37.95
2022-10-05T14:49:19.438Z,40.55
2022-10-05T14:58:07.528Z,42.78
2022-10-05T15:01:19.374Z,43.68
2022-10-05T15:04:42.451Z,43.73
2022-10-05T15:07:49.382Z,44.06
2022-10-05T15:11:01.221Z,44.53
2022-10-05T15:14:16.291Z,45.26
2022-10-05T15:17:42.865Z,46.06
2022-10-05T15:20:45.696Z,45.96
2022-10-05T15:24:02.853Z,46.69
2022-10-05T15:27:06.478Z,47.15
2022-10-05T15:30:11.721Z,48.01
2022-10-05T15:33:43.466Z,48.30
2022-10-05T15:36:58.200Z,49.75
2022-10-05T15:40:08.607Z,49.32
2022-10-05T15:43:19.053Z,50.20
2022-10-05T15:46:55.442Z,51.95
2022-10-05T15:50:17.767Z,52.88
2022-10-05T15:53:28.689Z,53.83
2022-10-05T15:56:38.841Z,54.92
2022-10-05T16:00:10.406Z,55.93
2022-10-05T16:03:28.650Z,56.99
2022-10-05T16:06:50.050Z,57.74
2022-10-05T16:10:14.049Z,58.51
2022-10-05T16:13:38.145Z,59.44
2022-10-05T16:17:01.955Z,59.51
2022-10-05T16:20:32.588Z,60.64
2022-10-05T16:23:55.476Z,61.45
2022-10-05T16:27:03.716Z,61.40
2022-10-05T16:30:11.998Z,62.09
2022-10-05T16:33:24.028Z,62.68
2022-10-05T16:36:49.909Z,62.83
2022-10-05T16:40:21.704Z,63.40
2022-10-05T16:43:25.711Z,63.60
2022-10-05T16:46:50.242Z,63.81
2022-10-05T16:50:17.009Z,63.64
2022-10-05T16:53:26.202Z,64.06
2022-10-05T16:56:41.313Z,64.18
2022-10-05T17:00:15.675Z,63.80
2022-10-05T17:03:31.733Z,64.45
2022-10-05T17:06:46.704Z,64.49
2022-10-05T17:10:18.874Z,65.00
2022-10-05T17:14:01.493Z,65.23
2022-10-05T17:17:28.953Z,65.28
2022-10-05T17:20:42.760Z,65.03
2022-10-05T17:24:12.646Z,66.08
2022-10-05T17:27:35.600Z,65.37
2022-10-05T17:31:18.794Z,65.73
2022-10-05T17:34:27.460Z,65.51
2022-10-05T17:37:31.991Z,65.67
2022-10-05T17:40:39.257Z,65.29
2022-10-05T17:44:13.816Z,65.10
2022-10-05T17:47:54.242Z,66.52
2022-10-05T17:51:16.666Z,65.87
2022-10-05T17:54:37.685Z,66.01
2022-10-05T17:57:41.978Z,66.78
2022-10-05T18:01:13.391Z,68.28
2022-10-05T18:04:24.949Z,70.60
2022-10-05T18:07:28.603Z,70.16
2022-10-05T18:10:34.028Z,70.83
2022-10-05T18:13:50.188Z,70.38
2022-10-05T18:17:10.427Z,68.82
2022-10-05T18:20:24.015Z,68.57
2022-10-05T18:23:30.331Z,66.99
2022-10-05T18:27:02.312Z,66.34
2022-10-05T18:30:22.344Z,66.01
2022-10-05T18:33:59.716Z,66.16
2022-10-05T18:37:25.707Z,65.90
2022-10-05T18:40:46.747Z,65.87
2022-10-05T18:43:51.124Z,65.85
2022-10-05T18:47:45.664Z,66.26
2022-10-05T18:51:22.912Z,67.01
2022-10-05T18:54:57.615Z,67.36
2022-10-05T18:58:06.503Z,67.79
2022-10-05T19:01:37.190Z,68.43
2022-10-05T19:05:42.969Z,68.80
2022-10-05T19:09:00.673Z,69.39
2022-10-05T19:12:12.226Z,69.07
2022-10-05T19:15:40.638Z,70.75
2022-10-05T19:19:01.547Z,71.54
2022-10-05T19:22:09.417Z,71.98
2022-10-05T19:25:21.465Z,72.45
2022-10-05T19:28:37.321Z,72.32
2022-10-05T19:31:56.628Z,73.04
2022-10-05T19:35:02.286Z,73.52
2022-10-05T19:38:21.895Z,74.16
2022-10-05T19:41:37.152Z,74.45
2022-10-05T19:45:34.470Z,74.61
2022-10-05T19:48:53.239Z,74.83
2022-10-05T19:51:57.833Z,74.98
2022-10-05T19:55:12.824Z,75.57
2022-10-05T19:58:22.029Z,75.44
2022-10-05T20:01:35.544Z,75.64
2022-10-05T20:04:41.258Z,75.90
2022-10-05T20:07:44.060Z,76.73
2022-10-05T20:11:13.755Z,76.65
2022-10-05T20:14:18.549Z,76.77
2022-10-05T20:17:47.399Z,76.92
2022-10-05T20:20:50.304Z,77.32
2022-10-05T20:27:46.795Z,79.02
2022-10-05T20:30:49.436Z,79.08
2022-10-05T20:33:52.538Z,79.18
2022-10-05T20:36:55.302Z,79.66
2022-10-05T20:39:58.092Z,80.01
2022-10-05T20:43:00.818Z,79.78
2022-10-05T20:46:03.846Z,80.34
2022-10-05T20:49:09.720Z,80.63
2022-10-05T20:52:15.454Z,81.06
2022-10-05T20:55:18.147Z,81.06
2022-10-05T20:58:21.142Z,81.24
2022-10-05T21:01:26.836Z,81.74
2022-10-05T21:04:40.030Z,82.18
2022-10-05T21:07:43.738Z,82.03
2022-10-05T21:10:46.869Z,81.96
2022-10-05T21:13:50.069Z,82.37
2022-10-05T21:16:52.792Z,82.20
2022-10-05T21:19:55.552Z,82.95
2022-10-05T21:22:58.218Z,83.13
2022-10-05T21:26:01.819Z,84.21
2022-10-05T21:29:10.216Z,84.64
2022-10-05T21:32:14.935Z,84.97
2022-10-05T21:35:17.659Z,85.23
2022-10-05T21:38:20.425Z,85.60
2022-10-05T21:41:23.648Z,85.13
2022-10-05T21:44:26.328Z,85.78
2022-10-05T21:47:29.163Z,85.86
2022-10-05T21:50:33.084Z,86.66
2022-10-05T21:53:40.072Z,86.25
2022-10-05T21:56:47.289Z,87.32
2022-10-05T21:59:50.303Z,86.43
2022-10-05T22:02:53.034Z,86.16
2022-10-05T22:05:55.883Z,86.57
2022-10-05T22:08:59.803Z,87.20
2022-10-05T22:12:02.539Z,88.08
2022-10-05T22:15:07.453Z,88.22
2022-10-05T22:18:17.383Z,88.39
2022-10-05T22:21:21.324Z,89.23
2022-10-05T22:24:24.077Z,88.93
2022-10-05T22:27:29.674Z,88.71
2022-10-05T22:30:33.195Z,88.44
2022-10-05T22:33:37.326Z,87.57
2022-10-05T22:36:41.866Z,88.09
2022-10-05T22:39:44.597Z,88.65
2022-10-05T22:42:47.402Z,89.63
2022-10-05T22:45:50.361Z,89.42
2022-10-05T22:48:53.230Z,89.52
2022-10-05T22:51:56.141Z,90.11
2022-10-05T22:54:58.907Z,89.78
2022-10-05T22:58:02.045Z,90.20
2022-10-05T23:01:07.585Z,90.16
2022-10-05T23:04:12.204Z,89.53
2022-10-05T23:07:14.987Z,89.92
2022-10-05T23:10:18.712Z,89.90
2022-10-05T23:13:22.591Z,90.17
2022-10-05T23:16:27.714Z,90.01
2022-10-05T23:19:30.467Z,89.65
2022-10-05T23:22:37.439Z,90.15
2022-10-05T23:25:40.186Z,90.50
2022-10-05T23:28:47.226Z,90.36
2022-10-05T23:31:50.423Z,89.66
2022-10-05T23:34:53.201Z,90.32
2022-10-05T23:37:55.867Z,89.94
2022-10-05T23:41:02.598Z,90.39
2022-10-05T23:44:05.280Z,90.65
2022-10-05T23:47:08.029Z,90.68
2022-10-05T23:50:10.746Z,91.12
2022-10-05T23:53:14.299Z,91.09
2022-10-05T23:56:17.040Z,91.21
2022-10-05T23:59:19.710Z,91.45
